Time;durP1;ratioP1;P1;durP2;ratioP2;P2;SDS_P1;SDS_P2;PMS_P1;PMS_P2;Temp;Humidity;BMP_temperature;BMP_pressure;BME280_temperature;BME280_humidity;BME280_pressure;Samples;Min_cycle;Max_cycle;Signal;HPM_P1;HPM_P2
2022/12/01 00:00:52;;;;;;;25.88;16.05;;;;;;;2.55;76.45;100363.34;1792667;80;20994;-52
2022/12/01 00:03:19;;;;;;;26.23;16.12;;;;;;;2.55;76.40;100362.05;1792484;80;20987;-55
2022/12/01 00:05:45;;;;;;;24.85;15.88;;;;;;;2.54;76.42;100360.31;1792499;80;20990;-49
2022/12/01 00:08:11;;;;;;;23.80;16.27;;;;;;;2.56;76.29;100359.86;1792536;80;20967;-49
2022/12/01 00:10:36;;;;;;;25.65;16.30;;;;;;;2.57;76.38;100361.60;1792679;80;20959;-46
2022/12/01 00:13:05;;;;;;;33.13;17.57;;;;;;;2.59;76.66;100357.26;1792695;80;21421;-55
2022/12/01 00:15:34;;;;;;;28.30;17.40;;;;;;;2.62;76.62;100354.66;1792687;80;21447;-53
2022/12/01 00:18:02;;;;;;;25.57;16.70;;;;;;;2.56;76.37;100354.67;1792323;80;21488;-54
2022/12/01 00:20:28;;;;;;;29.77;17.50;;;;;;;2.60;76.33;100356.40;1792797;80;21022;-41
2022/12/01 00:22:54;;;;;;;26.77;18.00;;;;;;;2.60;76.62;100355.52;1792700;80;21033;-51
2022/12/01 00:25:20;;;;;;;26.70;17.15;;;;;;;2.58;76.61;100354.66;1792629;80;20989;-51
2022/12/01 00:27:51;;;;;;;28.75;16.48;;;;;;;2.60;76.44;100342.53;1792661;80;21002;-42
2022/12/01 00:30:19;;;;;;;27.62;16.90;;;;;;;2.60;76.58;100349.91;1792644;80;20986;-59
2022/12/01 00:32:46;;;;;;;25.17;16.17;;;;;;;2.61;76.87;100354.66;1792773;80;21473;-58
2022/12/01 00:35:12;;;;;;;25.43;15.45;;;;;;;2.58;76.73;100356.81;1792709;80;20986;-47
2022/12/01 00:37:38;;;;;;;23.33;15.60;;;;;;;2.64;76.70;100347.71;1792915;80;20978;-51
2022/12/01 00:40:08;;;;;;;28.20;17.20;;;;;;;2.66;76.74;100350.30;1792676;80;21097;-47
2022/12/01 00:42:34;;;;;;;23.90;16.25;;;;;;;2.65;77.06;100345.52;1792645;80;20994;-57
2022/12/01 00:45:00;;;;;;;24.92;15.68;;;;;;;2.64;76.83;100344.27;1792613;80;20978;-57
2022/12/01 00:47:25;;;;;;;25.20;15.65;;;;;;;2.62;76.63;100338.19;1792604;80;21082;-56
2022/12/01 00:49:51;;;;;;;21.05;15.03;;;;;;;2.62;76.74;100338.19;1792597;80;21472;-42
2022/12/01 00:52:18;;;;;;;23.65;15.45;;;;;;;2.62;76.82;100338.19;1792681;80;20990;-53
2022/12/01 00:54:45;;;;;;;24.20;14.90;;;;;;;2.64;76.79;100339.07;1792810;80;20990;-44
2022/12/01 00:57:12;;;;;;;21.60;14.63;;;;;;;2.68;76.85;100329.08;1792959;80;20990;-42
2022/12/01 00:59:37;;;;;;;24.27;14.58;;;;;;;2.64;76.73;100337.77;1792577;80;22199;-47
2022/12/01 01:02:06;;;;;;;23.83;15.32;;;;;;;2.64;76.97;100329.53;1792666;80;20991;-45
2022/12/01 01:04:34;;;;;;;24.30;15.93;;;;;;;2.65;77.03;100336.44;1792653;80;20990;-58
2022/12/01 01:06:59;;;;;;;23.38;15.72;;;;;;;2.67;77.13;100337.31;1792675;80;21424;-44
2022/12/01 01:09:25;;;;;;;26.45;16.77;;;;;;;2.67;77.28;100336.02;1792753;80;20975;-49
2022/12/01 01:11:53;;;;;;;25.43;16.77;;;;;;;2.68;77.18;100340.32;1792421;80;21451;-55
2022/12/01 01:14:20;;;;;;;27.27;16.10;;;;;;;2.65;77.11;100336.44;1792746;80;21826;-46
2022/12/01 01:16:46;;;;;;;25.70;16.35;;;;;;;2.68;76.95;100341.63;1792831;80;21019;-56
2022/12/01 01:19:12;;;;;;;24.60;15.85;;;;;;;2.68;77.07;100333.83;1792458;80;21033;-45
2022/12/01 01:21:38;;;;;;;29.12;17.23;;;;;;;2.65;77.08;100333.84;1792640;80;20998;-48
2022/12/01 01:24:05;;;;;;;25.52;16.12;;;;;;;2.66;77.37;100329.53;1792675;80;21002;-51
2022/12/01 01:26:32;;;;;;;27.32;16.90;;;;;;;2.69;77.15;100329.48;1792819;80;21010;-55
2022/12/01 01:29:01;;;;;;;24.82;16.12;;;;;;;2.69;77.01;100327.78;1792747;80;20991;-48
2022/12/01 01:31:29;;;;;;;27.20;16.62;;;;;;;2.76;77.03;100330.32;1792673;80;21037;-45
2022/12/01 01:33:56;;;;;;;26.27;16.67;;;;;;;2.70;77.06;100326.03;1792636;80;21463;-46
2022/12/01 01:36:22;;;;;;;;;;;;;;;2.68;77.04;100322.14;1795373;80;20993;-57
2022/12/01 01:38:52;;;;;;;28.77;17.48;;;;;;;2.64;76.94;100319.14;1792702;80;20234;-51
2022/12/01 01:41:19;;;;;;;29.25;17.17;;;;;;;2.65;77.19;100315.66;1792607;80;21026;-45
2022/12/01 01:43:49;;;;;;;;;;;;;;;2.69;77.23;100314.78;1795336;80;21037;-44
2022/12/01 01:46:25;;;;;;;27.70;16.90;;;;;;;2.65;76.84;100314.36;1790999;80;20147;-42
2022/12/01 01:49:06;;;;;;;25.72;16.55;;;;;;;2.70;77.12;100314.34;1792578;80;21488;-49
2022/12/01 01:51:42;;;;;;;27.98;16.45;;;;;;;2.67;77.18;100313.05;1792642;80;21548;-46
2022/12/01 01:54:31;;;;;;;24.25;15.98;;;;;;;2.66;77.18;100316.09;1792682;80;20962;-50
2022/12/01 01:56:59;;;;;;;25.08;14.85;;;;;;;2.71;77.42;100316.50;1791343;80;20990;-44
2022/12/01 01:59:31;;;;;;;23.30;15.15;;;;;;;2.72;77.10;100311.73;1792657;80;20997;-55
2022/12/01 02:02:05;;;;;;;22.95;14.78;;;;;;;2.75;76.95;100307.39;1792585;80;21033;-48
2022/12/01 02:04:39;;;;;;;24.57;14.20;;;;;;;2.76;76.72;100307.80;1791121;80;21034;-52
2022/12/01 02:07:06;;;;;;;23.15;15.03;;;;;;;2.79;76.87;100317.32;1792637;80;21574;-44
2022/12/01 02:09:32;;;;;;;25.75;15.10;;;;;;;2.84;76.83;100309.06;1792637;80;20998;-47
2022/12/01 02:12:16;;;;;;;23.67;14.40;;;;;;;2.81;76.85;100313.83;1792614;80;21081;-48
2022/12/01 02:15:21;;;;;;;25.43;14.58;;;;;;;2.82;76.74;100310.37;1791858;80;21613;-54
2022/12/01 02:18:29;;;;;;;22.20;14.43;;;;;;;2.83;76.59;100309.92;1792217;80;21022;-53
2022/12/01 02:21:30;;;;;;;24.07;14.95;;;;;;;2.84;76.51;100309.06;1789638;80;20990;-58
2022/12/01 02:24:39;;;;;;;22.67;14.87;;;;;;;2.83;76.64;100311.22;1792664;80;21021;-48
2022/12/01 02:27:31;;;;;;;24.25;14.30;;;;;;;2.79;76.88;100310.38;1792560;80;21038;-54
2022/12/01 02:30:07;;;;;;;20.20;13.72;;;;;;;2.83;76.94;100307.33;1681072;84;21465;-50
2022/12/01 02:32:41;;;;;;;21.60;14.75;;;;;;;2.84;77.01;100310.36;1688458;84;21535;-48
2022/12/01 02:35:24;;;;;;;23.30;14.85;;;;;;;2.89;77.09;100312.46;1712219;84;21507;-57
2022/12/01 02:37:58;;;;;;;21.00;14.23;;;;;;;2.89;77.06;100311.16;1712242;84;21031;-42
2022/12/01 02:43:10;;;;;;;22.55;15.10;;;;;;;2.87;77.20;100306.00;1647153;83;21164;-46
2022/12/01 02:46:00;;;;;;;24.85;15.20;;;;;;;2.86;77.04;100300.38;1657792;86;21027;-46
2022/12/01 02:48:31;;;;;;;22.98;14.20;;;;;;;2.87;77.21;100304.70;1657609;86;21588;-51
2022/12/01 02:51:08;;;;;;;23.87;15.80;;;;;;;2.86;77.34;100299.07;1657752;86;21075;-44
2022/12/01 02:53:35;;;;;;;25.85;16.05;;;;;;;2.88;77.27;100304.27;1657617;86;21024;-48
2022/12/01 02:56:04;;;;;;;25.08;16.40;;;;;;;2.85;77.39;100303.83;1657642;86;21079;-41
2022/12/01 02:58:30;;;;;;;22.95;15.50;;;;;;;2.85;77.39;100299.08;1657500;86;21025;-45
2022/12/01 03:01:10;;;;;;;23.67;15.93;;;;;;;2.88;77.60;100301.66;1657698;86;21001;-47
2022/12/01 03:04:03;;;;;;;24.80;16.00;;;;;;;2.92;77.56;100297.30;1666736;84;21605;-49
2022/12/01 03:06:43;;;;;;;23.73;15.80;;;;;;;2.95;77.59;100311.14;1678163;85;21493;-54
2022/12/01 03:09:26;;;;;;;23.77;15.70;;;;;;;2.94;77.44;100302.05;1699154;84;21006;-59
2022/12/01 03:12:22;;;;;;;23.77;15.60;;;;;;;2.92;77.71;100304.66;1699356;84;21060;-48
2022/12/01 03:15:17;;;;;;;33.53;17.52;;;;;;;2.91;77.84;100302.95;1699243;83;21147;-47
2022/12/01 03:18:00;;;;;;;29.12;17.77;;;;;;;2.92;77.78;100301.20;1698376;83;21059;-49
2022/12/01 03:20:49;;;;;;;28.67;17.23;;;;;;;2.91;77.90;100295.56;1699067;83;20985;-58
2022/12/01 03:23:20;;;;;;;25.82;16.15;;;;;;;2.87;78.08;100300.81;1677771;84;20988;-53
2022/12/01 03:25:50;;;;;;;26.37;16.70;;;;;;;2.90;78.13;100296.02;1699588;84;21015;-42
2022/12/01 03:28:21;;;;;;;25.48;16.48;;;;;;;2.92;78.24;100298.16;1677916;84;21016;-51
2022/12/01 03:30:51;;;;;;;25.37;15.98;;;;;;;2.95;78.28;100298.56;1699618;84;21507;-53
2022/12/01 03:33:25;;;;;;;25.50;16.23;;;;;;;2.93;78.36;100299.90;1698520;84;20984;-45
2022/12/01 03:36:02;;;;;;;27.20;15.58;;;;;;;2.95;78.41;100297.26;1699554;84;21529;-46
2022/12/01 03:38:29;;;;;;;24.72;16.17;;;;;;;2.93;78.67;100296.00;1699736;83;21004;-44
2022/12/01 03:41:06;;;;;;;35.00;19.73;;;;;;;2.92;78.77;100294.27;1699806;84;21019;-59
2022/12/01 03:43:35;;;;;;;;;;;;;;;2.91;78.63;100295.16;1695844;84;21489;-41
2022/12/01 03:46:16;;;;;;;28.87;17.85;;;;;;;2.84;79.16;100294.77;1702555;84;20106;-48
2022/12/01 03:48:42;;;;;;;32.23;18.37;;;;;;;2.87;79.13;100293.43;1719893;83;21037;-52
2022/12/01 03:51:16;;;;;;;27.22;17.35;;;;;;;2.87;79.18;100297.33;1723918;83;20993;-44
2022/12/01 03:53:54;;;;;;;30.72;18.45;;;;;;;2.87;79.24;100290.83;1719581;83;21001;-48
2022/12/01 03:56:22;;;;;;;;;;;;;;;2.83;79.07;100293.03;1725747;83;20993;-43
2022/12/01 03:58:51;;;;;;;26.27;16.15;;;;;;;2.77;79.73;100287.90;1724782;83;20121;-59
2022/12/01 04:01:19;;;;;;;31.55;17.23;;;;;;;2.79;79.89;100286.15;1724875;83;21009;-56
2022/12/01 04:03:46;;;;;;;;;;;;;;;2.79;79.82;100287.45;1727501;83;21393;-48
2022/12/01 04:06:12;;;;;;;27.22;17.37;;;;;;;2.72;80.61;100289.22;1724974;83;20132;-45
2022/12/01 04:08:38;;;;;;;32.60;18.12;;;;;;;2.80;80.14;100297.83;1724748;82;21064;-44
2022/12/01 04:12:28;;;;;;;31.07;18.98;;;;;;;2.78;80.57;100297.40;1724785;83;21005;-54
2022/12/01 04:13:32;;;;;;;41.28;23.62;;;;;;;2.79;80.46;100290.05;1724050;82;20973;-49
2022/12/01 04:15:58;;;;;;;41.15;23.75;;;;;;;2.73;81.01;100288.36;1724802;83;21005;-51
2022/12/01 04:18:23;;;;;;;39.73;21.30;;;;;;;2.73;81.03;100287.06;1724870;82;21006;-52
2022/12/01 04:20:50;;;;;;;32.98;19.10;;;;;;;2.76;81.08;100291.36;1724850;82;21474;-51
2022/12/01 04:26:04;;;;;;;33.80;19.20;;;;;;;2.75;81.64;100287.91;1724748;83;21050;-42
2022/12/01 04:28:30;;;;;;;30.40;19.23;;;;;;;2.75;81.76;100290.50;1724708;83;20966;-46
2022/12/01 04:30:56;;;;;;;34.20;20.05;;;;;;;2.76;82.03;100288.76;1724768;82;20996;-53
2022/12/01 04:33:22;;;;;;;31.97;19.27;;;;;;;2.78;81.92;100294.80;1724811;83;21004;-45
2022/12/01 04:35:58;;;;;;;27.82;17.85;;;;;;;2.80;81.95;100298.25;1724814;83;21037;-48
2022/12/01 04:38:25;;;;;;;30.48;18.82;;;;;;;2.83;81.85;100304.73;1724871;83;21044;-48
2022/12/01 04:40:51;;;;;;;31.60;19.40;;;;;;;2.85;81.79;100300.38;1725082;83;21042;-52
2022/12/01 04:43:17;;;;;;;31.20;19.73;;;;;;;2.87;81.61;100303.82;1724555;83;21563;-48
2022/12/01 04:45:43;;;;;;;32.35;19.40;;;;;;;2.87;81.77;100307.72;1724571;83;21000;-47
2022/12/01 04:48:09;;;;;;;30.48;19.00;;;;;;;2.90;81.16;100305.55;1724490;83;20993;-50
2022/12/01 04:50:34;;;;;;;31.07;19.67;;;;;;;2.82;81.64;100300.39;1724545;83;21009;-46
2022/12/01 04:53:00;;;;;;;30.10;18.98;;;;;;;2.85;81.93;100308.17;1724489;83;21034;-50
2022/12/01 04:55:26;;;;;;;33.13;20.57;;;;;;;2.81;81.91;100304.73;1724668;83;21056;-54
2022/12/01 04:57:52;;;;;;;32.00;20.35;;;;;;;2.81;81.91;100304.73;1724670;83;21037;-55
2022/12/01 05:00:18;;;;;;;31.85;20.72;;;;;;;2.85;82.19;100305.58;1724689;83;21004;-46
2022/12/01 05:02:44;;;;;;;34.98;20.15;;;;;;;2.82;82.75;100307.77;1724653;83;21004;-51
2022/12/01 05:05:11;;;;;;;32.00;20.32;;;;;;;2.81;82.95;100312.97;1724682;82;20973;-52
2022/12/01 05:07:37;;;;;;;34.45;21.37;;;;;;;2.81;83.14;100300.84;1724731;83;20973;-44
2022/12/01 05:10:04;;;;;;;30.72;19.98;;;;;;;2.84;83.21;100307.77;1724591;83;21000;-46
2022/12/01 05:12:30;;;;;;;33.08;20.40;;;;;;;2.85;82.48;100299.08;1724788;83;21470;-48
2022/12/01 05:14:55;;;;;;;34.38;20.43;;;;;;;2.81;82.76;100301.28;1724622;82;21009;-53
2022/12/01 05:17:21;;;;;;;31.57;19.77;;;;;;;2.81;83.33;100302.14;1724614;82;21040;-42
2022/12/01 05:22:31;;;;;;;31.57;20.45;;;;;;;2.81;83.59;100301.28;1724804;83;21487;-53
2022/12/01 05:24:57;;;;;;;32.63;19.70;;;;;;;2.80;82.98;100296.95;1724685;83;21001;-47
2022/12/01 05:27:23;;;;;;;35.33;19.90;;;;;;;2.77;83.96;100296.99;1724722;83;21017;-47
2022/12/01 05:29:48;;;;;;;39.60;20.62;;;;;;;2.80;83.65;100302.14;1724567;83;20997;-44
2022/12/01 05:32:17;;;;;;;33.65;19.23;;;;;;;2.82;83.96;100299.09;1724628;82;21001;-55
2022/12/01 05:34:43;;;;;;;29.50;18.90;;;;;;;2.82;83.89;100302.98;1724546;82;21008;-49
2022/12/01 05:37:09;;;;;;;34.10;20.52;;;;;;;2.82;84.04;100299.09;1724616;83;21400;-49
2022/12/01 05:39:34;;;;;;;29.07;19.50;;;;;;;2.82;84.29;100299.09;1724627;83;21004;-53
2022/12/01 05:42:00;;;;;;;31.30;19.90;;;;;;;2.82;84.33;100304.29;1724589;82;21049;-48
2022/12/01 05:44:26;;;;;;;32.80;19.60;;;;;;;2.85;84.06;100304.27;1724631;83;21052;-53
2022/12/01 05:46:52;;;;;;;32.95;20.45;;;;;;;2.82;84.15;100302.58;1724615;83;20962;-44
2022/12/01 05:49:18;;;;;;;33.10;20.45;;;;;;;2.82;84.38;100307.77;1724528;83;21053;-40
2022/12/01 05:51:43;;;;;;;35.80;21.93;;;;;;;2.84;84.10;100304.72;1724637;83;21040;-45
2022/12/01 05:54:09;;;;;;;36.90;21.93;;;;;;;2.77;84.22;100299.59;1724566;83;21004;-53
2022/12/01 05:56:35;;;;;;;40.20;21.42;;;;;;;2.77;84.22;100299.59;1724592;83;21005;-54
2022/12/01 05:59:01;;;;;;;40.23;23.70;;;;;;;2.79;84.70;100303.03;1723874;83;21036;-43
2022/12/01 06:01:26;;;;;;;38.25;22.62;;;;;;;2.81;84.73;100304.73;1723485;83;21017;-42
2022/12/01 06:03:53;;;;;;;32.53;20.72;;;;;;;2.79;84.48;100306.48;1723382;83;21036;-51
2022/12/01 06:06:19;;;;;;;36.25;20.48;;;;;;;2.78;84.80;100305.19;1724730;83;21016;-50
2022/12/01 06:08:45;;;;;;;34.63;19.92;;;;;;;2.76;85.02;100301.75;1724505;83;20965;-48
2022/12/01 06:11:11;;;;;;;31.48;19.73;;;;;;;2.76;85.42;100305.64;1724511;83;20997;-51
2022/12/01 06:13:37;;;;;;;32.30;18.85;;;;;;;2.76;85.39;100308.23;1724471;83;21040;-45
2022/12/01 06:16:05;;;;;;;28.38;18.75;;;;;;;2.75;85.05;100311.28;1724483;83;21021;-48
2022/12/01 06:18:35;;;;;;;34.25;19.45;;;;;;;2.78;84.74;100315.58;1724447;82;21032;-54
2022/12/01 06:21:02;;;;;;;29.37;18.10;;;;;;;2.80;85.01;100313.83;1724490;83;21009;-51
2022/12/01 06:23:28;;;;;;;28.07;18.00;;;;;;;2.75;85.43;100312.58;1724652;82;21040;-49
2022/12/01 06:25:53;;;;;;;32.42;18.60;;;;;;;2.75;85.22;100320.78;1724495;83;20997;-47
2022/12/01 06:28:19;;;;;;;29.82;18.25;;;;;;;2.76;84.88;100314.73;1724494;82;20997;-58
2022/12/01 06:30:45;;;;;;;28.77;18.17;;;;;;;2.76;84.82;100317.33;1724507;83;21020;-49
2022/12/01 06:33:11;;;;;;;30.30;18.57;;;;;;;2.78;84.94;100318.18;1724579;83;21045;-49
2022/12/01 06:35:37;;;;;;;29.12;18.55;;;;;;;2.73;85.68;100315.63;1724516;83;20970;-54
2022/12/01 06:38:03;;;;;;;34.00;20.70;;;;;;;2.73;85.68;100315.63;1724492;82;21588;-57
2022/12/01 06:40:29;;;;;;;28.73;18.13;;;;;;;2.75;85.34;100319.08;1724729;83;21036;-47
2022/12/01 06:43:01;;;;;;;27.52;17.52;;;;;;;2.77;85.15;100327.72;1724538;83;21056;-43
2022/12/01 06:45:28;;;;;;;24.35;16.95;;;;;;;2.81;85.04;100323.36;1724723;83;21032;-49
2022/12/01 06:47:55;;;;;;;27.05;18.27;;;;;;;2.79;85.22;100324.67;1724896;83;21036;-46
2022/12/01 06:50:21;;;;;;;27.73;17.40;;;;;;;2.83;84.93;100332.86;1724773;83;21055;-50
2022/12/01 06:52:47;;;;;;;30.75;18.20;;;;;;;2.81;84.74;100329.41;1724746;82;21044;-50
2022/12/01 06:55:13;;;;;;;27.90;17.90;;;;;;;2.81;84.68;100324.66;1724814;83;21485;-49
2022/12/01 06:57:39;;;;;;;25.80;17.45;;;;;;;2.85;84.70;100330.25;1724786;82;21009;-49
2022/12/01 07:00:07;;;;;;;27.42;18.10;;;;;;;2.86;84.86;100328.09;1724682;83;21502;-43
2022/12/01 07:02:33;;;;;;;25.55;17.00;;;;;;;2.84;84.90;100328.55;1724773;83;21017;-57
2022/12/01 07:04:59;;;;;;;25.95;17.50;;;;;;;2.86;84.84;100331.99;1724799;83;21008;-52
2022/12/01 07:07:24;;;;;;;24.63;16.17;;;;;;;2.90;84.65;100327.64;1724862;83;21012;-49
2022/12/01 07:09:51;;;;;;;24.45;16.60;;;;;;;2.94;84.47;100330.62;1724719;83;20992;-56
2022/12/01 07:12:16;;;;;;;23.62;16.70;;;;;;;2.92;84.34;100331.94;1719528;83;21331;-46
2022/12/01 07:14:42;;;;;;;29.50;17.75;;;;;;;2.90;84.20;100334.98;1723626;83;21044;-49
2022/12/01 07:17:09;;;;;;;28.73;17.50;;;;;;;2.84;84.22;100340.23;1723928;83;21107;-52
2022/12/01 07:19:35;;;;;;;26.75;16.87;;;;;;;2.83;84.21;100333.30;1724988;83;21048;-48
2022/12/01 07:22:01;;;;;;;26.05;16.95;;;;;;;2.87;84.12;100341.49;1724755;83;21481;-43
2022/12/01 07:24:29;;;;;;;29.35;17.67;;;;;;;2.85;84.45;100341.50;1724727;83;21008;-49
2022/12/01 07:26:55;;;;;;;22.90;16.50;;;;;;;2.86;84.29;100339.34;1724729;83;21012;-58
2022/12/01 07:29:21;;;;;;;29.42;17.17;;;;;;;2.89;84.23;100343.64;1723427;82;21354;-52
2022/12/01 07:31:46;;;;;;;23.90;15.95;;;;;;;2.93;84.29;100346.66;1723585;83;21028;-47
2022/12/01 07:34:13;;;;;;;28.35;17.82;;;;;;;2.95;84.15;100342.31;1723901;82;21048;-41
2022/12/01 07:36:38;;;;;;;23.90;17.48;;;;;;;2.97;84.15;100343.16;1723561;82;21036;-45
2022/12/01 07:39:08;;;;;;;29.80;18.40;;;;;;;2.99;83.82;100349.66;1723648;83;21239;-52
2022/12/01 07:41:34;;;;;;;28.35;18.45;;;;;;;2.99;83.94;100350.51;1723503;83;21154;-49
2022/12/01 07:44:01;;;;;;;29.55;18.00;;;;;;;3.04;83.71;100356.53;1724459;83;21072;-55
2022/12/01 07:46:27;;;;;;;29.10;17.77;;;;;;;3.06;83.50;100352.63;1724533;82;21604;-49
2022/12/01 07:48:56;;;;;;;33.67;18.12;;;;;;;3.08;83.25;100352.18;1724501;83;20973;-54
2022/12/01 07:51:23;;;;;;;34.38;17.85;;;;;;;3.09;83.49;100353.89;1724453;83;21482;-49
2022/12/01 07:53:50;;;;;;;;;;;;;;;3.14;83.43;100360.36;1727059;82;20973;-49
2022/12/01 07:56:17;;;;;;;24.63;17.20;;;;;;;3.08;82.88;100359.98;1724526;83;20108;-46
2022/12/01 07:58:43;;;;;;;29.27;17.98;;;;;;;3.14;82.90;100357.77;1724031;82;21467;-52
2022/12/01 08:01:14;;;;;;;25.77;16.62;;;;;;;3.14;82.96;100359.06;1718523;83;21056;-49
2022/12/01 08:03:41;;;;;;;25.82;17.17;;;;;;;3.16;82.99;100356.02;1721554;83;21041;-45
2022/12/01 08:06:08;;;;;;;24.65;16.97;;;;;;;3.18;82.76;100358.16;1722352;83;21005;-54
2022/12/01 08:08:36;;;;;;;29.25;16.70;;;;;;;3.20;82.68;100357.70;1713605;83;21050;-46
2022/12/01 08:11:05;;;;;;;27.15;16.73;;;;;;;3.21;82.45;100365.94;1710363;84;21449;-51
2022/12/01 08:13:32;;;;;;;24.70;16.10;;;;;;;3.22;82.29;100361.15;1710654;84;21011;-46
2022/12/01 08:15:57;;;;;;;23.20;16.23;;;;;;;3.21;81.97;100365.50;1710546;84;21444;-57
2022/12/01 08:18:23;;;;;;;24.37;16.02;;;;;;;3.23;82.25;100366.34;1714131;83;20997;-52
2022/12/01 08:20:50;;;;;;;27.45;17.05;;;;;;;3.24;81.80;100364.18;1717895;83;21013;-54
2022/12/01 08:23:16;;;;;;;34.70;18.37;;;;;;;3.23;81.98;100365.48;1718319;83;21024;-50
2022/12/01 08:25:42;;;;;;;26.37;16.00;;;;;;;3.31;82.00;100373.22;1717848;83;21021;-52
2022/12/01 08:28:08;;;;;;;28.83;16.20;;;;;;;3.33;81.92;100374.06;1717981;83;21044;-48
2022/12/01 08:30:35;;;;;;;27.02;16.05;;;;;;;3.32;81.50;100368.45;1718135;83;21051;-49
2022/12/01 08:33:00;;;;;;;25.37;16.50;;;;;;;3.34;81.54;100374.50;1718258;83;21528;-45
2022/12/01 08:35:26;;;;;;;22.95;16.02;;;;;;;3.29;81.16;100377.57;1718185;83;21040;-54
2022/12/01 08:37:52;;;;;;;26.48;17.17;;;;;;;3.32;81.34;100379.71;1718133;83;21008;-53
2022/12/01 08:40:19;;;;;;;29.45;16.65;;;;;;;3.31;81.32;100383.20;1718012;83;20981;-45
2022/12/01 08:42:45;;;;;;;23.55;16.42;;;;;;;3.33;81.52;100384.05;1717756;83;21001;-56
2022/12/01 08:45:11;;;;;;;44.20;21.55;;;;;;;3.34;81.46;100384.45;1715406;84;21044;-48
2022/12/01 08:47:37;;;;;;;43.13;23.62;;;;;;;3.28;81.38;100379.31;1714280;83;20997;-51
2022/12/01 08:50:05;;;;;;;35.05;17.92;;;;;;;3.25;81.25;100380.19;1715510;83;21008;-46
2022/12/01 08:52:32;;;;;;;37.55;18.55;;;;;;;3.28;81.39;100379.31;1715435;83;21001;-47
2022/12/01 08:54:58;;;;;;;28.77;16.52;;;;;;;3.28;81.24;100387.12;1715706;84;21424;-47
2022/12/01 08:57:23;;;;;;;26.48;16.25;;;;;;;3.28;81.19;100383.22;1715550;84;21028;-54
2022/12/01 08:59:49;;;;;;;32.08;17.25;;;;;;;3.25;81.04;100380.63;1715555;84;21481;-50
2022/12/01 09:02:21;;;;;;;23.85;16.20;;;;;;;3.25;81.12;100379.33;1715458;84;21032;-55
2022/12/01 09:04:44;;;;;;;23.83;14.55;;;;;;;3.28;81.27;100383.22;1714960;83;20991;-61
2022/12/01 09:07:10;;;;;;;20.35;15.00;;;;;;;3.31;80.65;100383.62;1715346;84;21026;-55
2022/12/01 09:09:36;;;;;;;22.27;13.87;;;;;;;3.32;80.81;100386.66;1715665;84;21110;-43
2022/12/01 09:12:03;;;;;;;18.77;13.58;;;;;;;3.32;80.66;100371.05;1715330;83;21005;-46
2022/12/01 09:14:28;;;;;;;22.37;14.28;;;;;;;3.36;80.44;100378.80;1715405;84;21015;-54
2022/12/01 09:16:54;;;;;;;21.23;13.53;;;;;;;3.36;80.02;100369.70;1715526;84;21543;-49
2022/12/01 09:19:20;;;;;;;23.42;15.43;;;;;;;3.43;80.02;100368.77;1715454;84;21482;-52
2022/12/01 09:21:47;;;;;;;28.00;15.58;;;;;;;3.44;80.05;100369.21;1697377;83;21020;-52
2022/12/01 09:24:15;;;;;;;25.43;14.50;;;;;;;3.48;79.51;100358.79;1685226;84;21048;-52
2022/12/01 09:26:41;;;;;;;29.95;16.48;;;;;;;3.57;79.93;100362.61;1685008;85;21533;-54
2022/12/01 09:29:12;;;;;;;31.47;16.73;;;;;;;3.58;79.17;100357.81;1685190;85;20996;-45
2022/12/01 09:31:39;;;;;;;27.50;17.52;;;;;;;3.62;79.27;100350.39;1685177;85;21827;-58
2022/12/01 09:34:15;;;;;;;24.23;15.63;;;;;;;3.64;78.88;100352.12;1684912;85;21013;-50
2022/12/01 09:36:42;;;;;;;25.57;16.10;;;;;;;3.74;79.12;100352.02;1685141;85;21525;-43
2022/12/01 09:39:13;;;;;;;22.13;16.13;;;;;;;3.78;78.22;100352.41;1685333;84;21061;-52
2022/12/01 09:41:55;;;;;;;34.67;20.95;;;;;;;3.85;78.35;100345.81;1685113;85;21009;-52
2022/12/01 09:44:42;;;;;;;39.55;25.88;;;;;;;3.92;78.49;100344.02;1694494;84;21024;-52
2022/12/01 09:47:22;;;;;;;30.02;18.48;;;;;;;3.94;78.06;100346.16;1699613;84;21541;-46
2022/12/01 09:50:02;;;;;;;26.10;16.73;;;;;;;3.93;77.92;100343.56;1699879;83;21003;-49
2022/12/01 09:52:39;;;;;;;29.18;16.85;;;;;;;3.90;77.50;100344.48;1699830;84;20984;-59
2022/12/01 09:55:15;;;;;;;34.98;14.65;;;;;;;3.88;77.44;100334.53;1700085;84;21016;-49
2022/12/01 09:57:43;;;;;;;21.75;14.33;;;;;;;3.77;76.49;100328.14;1700150;84;21012;-50
2022/12/01 10:00:25;;;;;;;25.72;16.97;;;;;;;3.76;76.95;100334.20;1700102;84;21031;-49
2022/12/01 10:03:29;;;;;;;23.73;14.75;;;;;;;3.75;77.14;100335.55;1699937;84;21012;-46
2022/12/01 10:06:09;;;;;;;25.30;15.03;;;;;;;3.79;77.16;100335.94;1698768;84;21012;-49
2022/12/01 10:08:40;;;;;;;26.02;14.98;;;;;;;3.75;76.75;100332.95;1699874;84;20992;-43
2022/12/01 10:11:17;;;;;;;25.62;14.50;;;;;;;3.73;77.03;100326.45;1699846;84;21840;-46
2022/12/01 10:13:43;;;;;;;;;;;;;;;3.75;76.82;100332.50;1698727;84;21044;-48
2022/12/01 10:16:12;;;;;;;19.00;13.38;;;;;;;3.72;76.56;100336.42;1699928;83;20155;-52
2022/12/01 10:18:50;;;;;;;17.52;12.40;;;;;;;3.73;76.40;100332.96;1669807;84;21400;-52
2022/12/01 10:21:22;;;;;;;;;;;;;;;3.78;76.69;100331.59;1702426;84;21937;-48
2022/12/01 10:24:01;;;;;;;20.68;13.40;;;;;;;3.64;75.44;100332.61;1699348;84;20143;-56
2022/12/01 10:27:01;;;;;;;24.87;14.38;;;;;;;3.71;76.36;100325.61;1699670;84;21036;-49
2022/12/01 10:29:44;;;;;;;18.92;11.43;;;;;;;3.67;75.80;100323.90;1699770;84;21087;-50
2022/12/01 10:32:29;;;;;;;17.07;11.22;;;;;;;3.69;75.52;100321.28;1694774;83;21106;-46
2022/12/01 10:34:56;;;;;;;24.27;13.00;;;;;;;3.70;75.89;100322.58;1706969;82;21029;-50
2022/12/01 10:37:26;;;;;;;17.80;12.63;;;;;;;3.76;76.53;100318.59;1726174;83;21573;-51
2022/12/01 10:39:55;;;;;;;22.62;13.90;;;;;;;3.76;76.36;100316.44;1728715;83;21004;-48
2022/12/01 10:42:41;;;;;;;21.07;13.40;;;;;;;3.75;76.12;100314.28;1728940;83;21007;-47
2022/12/01 10:45:21;;;;;;;22.07;13.93;;;;;;;3.77;75.93;100310.38;1722835;83;21073;-46
2022/12/01 10:48:15;;;;;;;22.90;14.63;;;;;;;3.77;76.26;100307.33;1724138;83;21512;-45
2022/12/01 10:50:43;;;;;;;27.50;16.40;;;;;;;3.76;76.21;100307.34;1718661;83;21479;-52
2022/12/01 10:53:27;;;;;;;26.15;16.77;;;;;;;3.76;76.37;100311.23;1701278;83;21361;-45
2022/12/01 10:56:07;;;;;;;24.55;15.83;;;;;;;3.75;76.63;100306.48;1721858;83;21009;-43
2022/12/01 10:58:50;;;;;;;27.45;15.55;;;;;;;3.73;76.64;100300.86;1720125;83;21033;-41
2022/12/01 11:01:30;;;;;;;22.95;15.18;;;;;;;3.74;76.60;100299.55;1721823;83;21470;-47
2022/12/01 11:04:44;;;;;;;23.20;13.98;;;;;;;3.75;76.28;100299.13;1721611;83;21537;-47
2022/12/01 11:07:24;;;;;;;26.65;16.35;;;;;;;3.69;75.82;100290.92;1721563;83;20993;-41
2022/12/01 11:10:31;;;;;;;32.48;16.07;;;;;;;3.71;76.31;100288.31;1721200;83;21557;-42
2022/12/01 11:13:05;;;;;;;23.45;16.20;;;;;;;3.71;76.51;100295.70;1721642;83;20966;-44
2022/12/01 11:15:53;;;;;;;26.48;15.58;;;;;;;3.72;76.89;100297.85;1721655;83;21090;-49
2022/12/01 11:18:35;;;;;;;28.50;16.77;;;;;;;3.71;77.53;100299.59;1721791;83;21040;-41
2022/12/01 11:21:25;;;;;;;28.77;17.57;;;;;;;3.74;77.86;100295.64;1721362;83;21056;-50
2022/12/01 11:23:54;;;;;;;28.17;16.85;;;;;;;3.74;78.45;100293.04;1722302;82;21437;-48
2022/12/01 11:26:25;;;;;;;33.63;17.60;;;;;;;3.72;78.73;100293.50;1723398;83;20974;-46
2022/12/01 11:28:56;;;;;;;26.42;16.20;;;;;;;3.67;79.28;100288.78;1723146;83;21005;-44
2022/12/01 11:31:35;;;;;;;28.77;17.55;;;;;;;3.68;79.44;100292.27;1723352;83;21001;-43
2022/12/01 11:34:01;;;;;;;32.78;18.07;;;;;;;3.71;79.43;100293.09;1722589;83;20988;-42
2022/12/01 11:36:36;;;;;;;31.02;18.32;;;;;;;3.71;80.10;100287.89;1723367;83;20954;-45
2022/12/01 11:39:03;;;;;;;30.23;17.62;;;;;;;3.70;80.27;100290.50;1722941;83;20973;-45
2022/12/01 11:41:39;;;;;;;26.27;16.52;;;;;;;3.68;80.08;100285.77;1723635;83;21044;-47
2022/12/01 11:44:10;;;;;;;28.57;17.27;;;;;;;3.62;80.27;100291.45;1723153;82;21037;-41